PAKT

Ketchikan International Airport

Ketchikan, Alaska, USA
PAKT 171120Z 1712/1812 14009KT P6SM SCT020 OVC060 TEMPO 1713/1717 -RA BKN025 OVC040 FM171800 14012KT P6SM -RA BKN015 OVC022 FM180000 14010KT P6SM BKN012 OVC020 AMD LTD TO CLD VIS AND WIND 1712/1715
Issued Valid From Valid To
Aug-17 @ 11:20 UTC
(4 hours ago)
Aug-17 @ 12:00 UTC
(3 hours ago)
Aug-18 @ 12:00 UTC
(in 21 hours)
Aug-17 @ 12:00 to Aug-17 @ 18:00
PAKT 171120Z 1712/1812 14009KT P6SM SCT020 OVC060
Wind Visibility Clouds
140° at 9 knots Greater than 6 miles
  • Scattered at 2,000' AGL
  • Overcast at 6,000' AGL
Temporary Aug-17 @ 13:00 to Aug-17 @ 17:00
TEMPO 1713/1717 -RA BKN025 OVC040
Clouds Conditions
  • Broken at 2,500' AGL
  • Overcast at 4,000' AGL
  • Light Rain
From Aug-17 @ 18:00 to Aug-18 @ 00:00
FM171800 14012KT P6SM -RA BKN015 OVC022
Wind Visibility Clouds Conditions
140° at 12 knots Greater than 6 miles
  • Broken at 1,500' AGL
  • Overcast at 2,200' AGL
  • Light Rain
From Aug-18 @ 00:00 to Aug-18 @ 12:00
FM180000 14010KT P6SM BKN012 OVC020 AMD LTD TO CLD VIS AND WIND 1712/1715
Wind Visibility Clouds
140° at 10 knots Greater than 6 miles
  • Broken at 1,200' AGL
  • Overcast at 2,000' AGL
PAKT 171120Z 1712/1812 14009KT P6SM SCT020 OVC060 TEMPO 1713/1717 -RA BKN025 OVC040 FM171800 14012KT P6SM -RA BKN015 OVC022 FM180000 14010KT P6SM BKN012 OVC020 AMD LTD TO CLD VIS AND WIND 1712/1715
Issued Aug-17 @ 11:20 UTC
(4 hours ago)
Valid From Aug-17 @ 12:00 UTC
(3 hours ago)
Valid To Aug-18 @ 12:00 UTC
(in 21 hours)
Aug-17 @ 12:00 - Aug-17 @ 18:00
Wind Visibility
140° at 9 knots Greater than 6 miles
Clouds
  • Scattered at 2,000' AGL
  • Overcast at 6,000' AGL
Temporary Aug-17 @ 13:00 - Aug-17 @ 17:00
Clouds
  • Broken at 2,500' AGL
  • Overcast at 4,000' AGL
Conditions
  • Light Rain
From Aug-17 @ 18:00 - Aug-18 @ 00:00
Wind Visibility
140° at 12 knots Greater than 6 miles
Clouds
  • Broken at 1,500' AGL
  • Overcast at 2,200' AGL
Conditions
  • Light Rain
From Aug-18 @ 00:00 - Aug-18 @ 12:00
Wind Visibility
140° at 10 knots Greater than 6 miles
Clouds
  • Broken at 1,200' AGL
  • Overcast at 2,000' AGL